sensor_id;sensor_type;location;lat;lon;timestamp;P1;durP1;ratioP1;P2;durP2;ratioP2
48191;SDS011;33982;47.430;18.912;2022-09-09T00:00:43;5.12;;;3.00;;
48191;SDS011;33982;47.430;18.912;2022-09-09T00:03:18;4.70;;;2.77;;
48191;SDS011;33982;47.430;18.912;2022-09-09T00:12:02;4.20;;;2.95;;
48191;SDS011;33982;47.430;18.912;2022-09-09T00:17:00;4.62;;;3.20;;
48191;SDS011;33982;47.430;18.912;2022-09-09T00:19:34;4.45;;;2.97;;
48191;SDS011;33982;47.430;18.912;2022-09-09T00:24:38;6.87;;;3.10;;
48191;SDS011;33982;47.430;18.912;2022-09-09T00:30:13;5.03;;;3.20;;
48191;SDS011;33982;47.430;18.912;2022-09-09T00:32:41;5.97;;;3.15;;
48191;SDS011;33982;47.430;18.912;2022-09-09T00:37:46;5.15;;;2.85;;
48191;SDS011;33982;47.430;18.912;2022-09-09T00:42:57;4.55;;;2.78;;
48191;SDS011;33982;47.430;18.912;2022-09-09T00:46:38;4.40;;;2.90;;
48191;SDS011;33982;47.430;18.912;2022-09-09T00:51:34;5.82;;;3.10;;
48191;SDS011;33982;47.430;18.912;2022-09-09T00:57:31;4.93;;;3.03;;
48191;SDS011;33982;47.430;18.912;2022-09-09T01:08:23;5.80;;;2.90;;
48191;SDS011;33982;47.430;18.912;2022-09-09T01:10:55;7.00;;;3.00;;
48191;SDS011;33982;47.430;18.912;2022-09-09T01:13:27;5.28;;;2.92;;
48191;SDS011;33982;47.430;18.912;2022-09-09T01:16:02;4.53;;;3.00;;
48191;SDS011;33982;47.430;18.912;2022-09-09T01:18:35;5.22;;;3.00;;
48191;SDS011;33982;47.430;18.912;2022-09-09T01:27:00;4.62;;;2.87;;
48191;SDS011;33982;47.430;18.912;2022-09-09T01:29:28;4.72;;;3.15;;
48191;SDS011;33982;47.430;18.912;2022-09-09T01:32:00;4.60;;;3.10;;
48191;SDS011;33982;47.430;18.912;2022-09-09T01:34:31;6.43;;;3.00;;
48191;SDS011;33982;47.430;18.912;2022-09-09T01:37:02;6.05;;;3.35;;
48191;SDS011;33982;47.430;18.912;2022-09-09T01:39:35;5.40;;;3.20;;
48191;SDS011;33982;47.430;18.912;2022-09-09T01:42:04;5.27;;;3.27;;
48191;SDS011;33982;47.430;18.912;2022-09-09T01:44:34;4.85;;;3.00;;
48191;SDS011;33982;47.430;18.912;2022-09-09T01:47:02;4.90;;;2.90;;
48191;SDS011;33982;47.430;18.912;2022-09-09T01:49:30;5.40;;;3.00;;
48191;SDS011;33982;47.430;18.912;2022-09-09T01:52:01;5.00;;;3.03;;
48191;SDS011;33982;47.430;18.912;2022-09-09T01:54:30;4.75;;;2.87;;
48191;SDS011;33982;47.430;18.912;2022-09-09T02:08:08;5.82;;;3.30;;
48191;SDS011;33982;47.430;18.912;2022-09-09T02:13:13;5.28;;;3.50;;
48191;SDS011;33982;47.430;18.912;2022-09-09T02:15:43;5.07;;;3.33;;
48191;SDS011;33982;47.430;18.912;2022-09-09T02:18:24;4.85;;;3.60;;
48191;SDS011;33982;47.430;18.912;2022-09-09T02:20:55;6.22;;;3.45;;
48191;SDS011;33982;47.430;18.912;2022-09-09T02:23:25;4.95;;;3.30;;
48191;SDS011;33982;47.430;18.912;2022-09-09T02:25:53;5.25;;;3.42;;
48191;SDS011;33982;47.430;18.912;2022-09-09T02:28:27;4.70;;;3.20;;
48191;SDS011;33982;47.430;18.912;2022-09-09T02:31:00;4.97;;;3.40;;
48191;SDS011;33982;47.430;18.912;2022-09-09T02:33:32;5.68;;;3.28;;
48191;SDS011;33982;47.430;18.912;2022-09-09T02:36:02;5.20;;;3.50;;
48191;SDS011;33982;47.430;18.912;2022-09-09T02:38:33;5.40;;;3.28;;
48191;SDS011;33982;47.430;18.912;2022-09-09T02:41:04;5.35;;;3.22;;
48191;SDS011;33982;47.430;18.912;2022-09-09T02:43:34;4.65;;;3.05;;
48191;SDS011;33982;47.430;18.912;2022-09-09T02:49:21;5.60;;;3.40;;
48191;SDS011;33982;47.430;18.912;2022-09-09T02:52:07;4.95;;;3.30;;
48191;SDS011;33982;47.430;18.912;2022-09-09T02:54:37;5.83;;;3.50;;
48191;SDS011;33982;47.430;18.912;2022-09-09T02:57:17;5.45;;;3.30;;
48191;SDS011;33982;47.430;18.912;2022-09-09T02:59:48;5.57;;;3.65;;
48191;SDS011;33982;47.430;18.912;2022-09-09T03:02:19;5.43;;;3.50;;
48191;SDS011;33982;47.430;18.912;2022-09-09T03:04:50;6.20;;;3.55;;
48191;SDS011;33982;47.430;18.912;2022-09-09T03:07:20;6.85;;;3.97;;
48191;SDS011;33982;47.430;18.912;2022-09-09T03:09:48;5.10;;;3.70;;
48191;SDS011;33982;47.430;18.912;2022-09-09T03:12:16;5.37;;;3.58;;
48191;SDS011;33982;47.430;18.912;2022-09-09T03:14:46;5.25;;;3.92;;
48191;SDS011;33982;47.430;18.912;2022-09-09T03:17:13;7.87;;;4.20;;
48191;SDS011;33982;47.430;18.912;2022-09-09T03:19:42;5.95;;;3.92;;
48191;SDS011;33982;47.430;18.912;2022-09-09T03:22:10;5.25;;;4.00;;
48191;SDS011;33982;47.430;18.912;2022-09-09T03:24:39;6.68;;;4.53;;
48191;SDS011;33982;47.430;18.912;2022-09-09T03:27:07;5.30;;;3.90;;
48191;SDS011;33982;47.430;18.912;2022-09-09T03:29:35;7.35;;;4.40;;
48191;SDS011;33982;47.430;18.912;2022-09-09T03:32:03;5.70;;;4.57;;
48191;SDS011;33982;47.430;18.912;2022-09-09T03:34:32;8.97;;;4.87;;
48191;SDS011;33982;47.430;18.912;2022-09-09T03:37:00;6.20;;;4.95;;
48191;SDS011;33982;47.430;18.912;2022-09-09T03:39:28;6.47;;;4.60;;
48191;SDS011;33982;47.430;18.912;2022-09-09T03:41:58;6.45;;;4.85;;
48191;SDS011;33982;47.430;18.912;2022-09-09T03:44:27;7.20;;;5.00;;
48191;SDS011;33982;47.430;18.912;2022-09-09T03:46:54;7.32;;;5.05;;
48191;SDS011;33982;47.430;18.912;2022-09-09T03:49:22;7.07;;;5.28;;
48191;SDS011;33982;47.430;18.912;2022-09-09T03:51:53;7.82;;;5.35;;
48191;SDS011;33982;47.430;18.912;2022-09-09T03:54:21;9.98;;;5.25;;
48191;SDS011;33982;47.430;18.912;2022-09-09T03:56:49;5.75;;;4.80;;
48191;SDS011;33982;47.430;18.912;2022-09-09T03:59:18;6.90;;;4.90;;
48191;SDS011;33982;47.430;18.912;2022-09-09T04:01:46;7.07;;;4.80;;
48191;SDS011;33982;47.430;18.912;2022-09-09T04:04:14;6.97;;;4.80;;
48191;SDS011;33982;47.430;18.912;2022-09-09T04:06:42;7.18;;;5.00;;
48191;SDS011;33982;47.430;18.912;2022-09-09T04:09:10;6.60;;;4.90;;
48191;SDS011;33982;47.430;18.912;2022-09-09T04:11:38;6.12;;;4.80;;
48191;SDS011;33982;47.430;18.912;2022-09-09T04:14:05;7.57;;;4.50;;
48191;SDS011;33982;47.430;18.912;2022-09-09T04:16:33;6.82;;;4.85;;
48191;SDS011;33982;47.430;18.912;2022-09-09T04:19:03;6.90;;;4.75;;
48191;SDS011;33982;47.430;18.912;2022-09-09T04:21:35;7.55;;;5.20;;
48191;SDS011;33982;47.430;18.912;2022-09-09T04:24:03;6.60;;;4.67;;
48191;SDS011;33982;47.430;18.912;2022-09-09T04:26:32;6.55;;;4.95;;
48191;SDS011;33982;47.430;18.912;2022-09-09T04:29:00;6.12;;;5.18;;
48191;SDS011;33982;47.430;18.912;2022-09-09T04:31:29;6.62;;;5.10;;
48191;SDS011;33982;47.430;18.912;2022-09-09T04:33:56;5.95;;;5.03;;
48191;SDS011;33982;47.430;18.912;2022-09-09T04:36:24;8.18;;;4.70;;
48191;SDS011;33982;47.430;18.912;2022-09-09T04:38:54;7.18;;;5.45;;
48191;SDS011;33982;47.430;18.912;2022-09-09T04:41:21;6.45;;;4.85;;
48191;SDS011;33982;47.430;18.912;2022-09-09T04:43:49;9.05;;;5.43;;
48191;SDS011;33982;47.430;18.912;2022-09-09T04:46:17;6.55;;;5.20;;
48191;SDS011;33982;47.430;18.912;2022-09-09T04:48:46;7.12;;;5.37;;
48191;SDS011;33982;47.430;18.912;2022-09-09T04:51:14;6.82;;;5.40;;
48191;SDS011;33982;47.430;18.912;2022-09-09T04:53:43;6.72;;;5.45;;
48191;SDS011;33982;47.430;18.912;2022-09-09T04:56:15;8.13;;;5.50;;
48191;SDS011;33982;47.430;18.912;2022-09-09T04:58:46;8.18;;;5.30;;
48191;SDS011;33982;47.430;18.912;2022-09-09T05:01:19;7.13;;;5.30;;
48191;SDS011;33982;47.430;18.912;2022-09-09T05:03:49;7.62;;;5.32;;
48191;SDS011;33982;47.430;18.912;2022-09-09T05:06:18;7.35;;;5.53;;
48191;SDS011;33982;47.430;18.912;2022-09-09T05:08:47;6.68;;;5.40;;
48191;SDS011;33982;47.430;18.912;2022-09-09T05:13:53;6.90;;;5.35;;
48191;SDS011;33982;47.430;18.912;2022-09-09T05:16:24;6.80;;;5.30;;
48191;SDS011;33982;47.430;18.912;2022-09-09T05:18:58;7.00;;;5.68;;
48191;SDS011;33982;47.430;18.912;2022-09-09T05:21:27;7.43;;;5.33;;
48191;SDS011;33982;47.430;18.912;2022-09-09T05:23:55;6.60;;;5.15;;
48191;SDS011;33982;47.430;18.912;2022-09-09T05:26:23;7.03;;;5.32;;
48191;SDS011;33982;47.430;18.912;2022-09-09T05:28:52;6.60;;;5.70;;
48191;SDS011;33982;47.430;18.912;2022-09-09T05:31:21;8.27;;;5.47;;
48191;SDS011;33982;47.430;18.912;2022-09-09T05:33:49;7.17;;;5.90;;
48191;SDS011;33982;47.430;18.912;2022-09-09T05:36:21;7.65;;;5.43;;
48191;SDS011;33982;47.430;18.912;2022-09-09T05:38:51;7.72;;;5.90;;
48191;SDS011;33982;47.430;18.912;2022-09-09T05:41:23;7.35;;;5.68;;
48191;SDS011;33982;47.430;18.912;2022-09-09T05:43:52;7.30;;;5.70;;
48191;SDS011;33982;47.430;18.912;2022-09-09T05:46:21;8.30;;;5.97;;
48191;SDS011;33982;47.430;18.912;2022-09-09T05:48:50;8.88;;;6.10;;
48191;SDS011;33982;47.430;18.912;2022-09-09T05:51:24;8.40;;;5.82;;
48191;SDS011;33982;47.430;18.912;2022-09-09T05:53:55;6.47;;;5.78;;
48191;SDS011;33982;47.430;18.912;2022-09-09T05:56:27;7.57;;;5.82;;
48191;SDS011;33982;47.430;18.912;2022-09-09T05:58:56;7.07;;;5.90;;
48191;SDS011;33982;47.430;18.912;2022-09-09T06:01:33;9.07;;;5.50;;
48191;SDS011;33982;47.430;18.912;2022-09-09T06:04:03;7.03;;;5.55;;
48191;SDS011;33982;47.430;18.912;2022-09-09T06:06:32;7.20;;;5.90;;
48191;SDS011;33982;47.430;18.912;2022-09-09T06:09:05;6.30;;;5.25;;
48191;SDS011;33982;47.430;18.912;2022-09-09T06:11:38;7.80;;;5.70;;
48191;SDS011;33982;47.430;18.912;2022-09-09T06:14:09;7.25;;;5.60;;
48191;SDS011;33982;47.430;18.912;2022-09-09T06:16:37;7.20;;;5.32;;
48191;SDS011;33982;47.430;18.912;2022-09-09T06:19:06;8.02;;;5.75;;
48191;SDS011;33982;47.430;18.912;2022-09-09T06:21:34;6.75;;;5.43;;
48191;SDS011;33982;47.430;18.912;2022-09-09T06:24:04;7.07;;;5.22;;
48191;SDS011;33982;47.430;18.912;2022-09-09T06:26:33;8.70;;;5.30;;
48191;SDS011;33982;47.430;18.912;2022-09-09T06:29:05;6.95;;;5.60;;
48191;SDS011;33982;47.430;18.912;2022-09-09T06:31:35;6.47;;;4.93;;
48191;SDS011;33982;47.430;18.912;2022-09-09T06:34:06;6.93;;;4.97;;
48191;SDS011;33982;47.430;18.912;2022-09-09T06:36:37;6.72;;;5.22;;
48191;SDS011;33982;47.430;18.912;2022-09-09T06:39:07;7.30;;;5.07;;
48191;SDS011;33982;47.430;18.912;2022-09-09T06:41:41;6.90;;;4.90;;
48191;SDS011;33982;47.430;18.912;2022-09-09T06:44:14;5.60;;;4.57;;
48191;SDS011;33982;47.430;18.912;2022-09-09T06:46:44;6.18;;;4.10;;
48191;SDS011;33982;47.430;18.912;2022-09-09T06:49:15;5.75;;;4.20;;
48191;SDS011;33982;47.430;18.912;2022-09-09T06:51:44;7.20;;;4.30;;
48191;SDS011;33982;47.430;18.912;2022-09-09T06:54:18;8.77;;;4.57;;
48191;SDS011;33982;47.430;18.912;2022-09-09T06:56:47;5.77;;;4.30;;
48191;SDS011;33982;47.430;18.912;2022-09-09T06:59:18;6.43;;;4.10;;
48191;SDS011;33982;47.430;18.912;2022-09-09T07:01:51;6.63;;;4.30;;
48191;SDS011;33982;47.430;18.912;2022-09-09T07:04:22;7.40;;;4.50;;
48191;SDS011;33982;47.430;18.912;2022-09-09T07:06:53;6.15;;;4.00;;
48191;SDS011;33982;47.430;18.912;2022-09-09T07:09:24;7.03;;;4.43;;
48191;SDS011;33982;47.430;18.912;2022-09-09T07:11:53;7.07;;;4.43;;
48191;SDS011;33982;47.430;18.912;2022-09-09T07:14:20;6.60;;;4.10;;
48191;SDS011;33982;47.430;18.912;2022-09-09T07:16:51;6.50;;;4.20;;
48191;SDS011;33982;47.430;18.912;2022-09-09T07:19:26;7.00;;;4.43;;
48191;SDS011;33982;47.430;18.912;2022-09-09T07:21:54;7.93;;;4.30;;
48191;SDS011;33982;47.430;18.912;2022-09-09T07:24:23;8.40;;;4.60;;
48191;SDS011;33982;47.430;18.912;2022-09-09T07:27:00;8.43;;;4.40;;
48191;SDS011;33982;47.430;18.912;2022-09-09T07:29:28;5.83;;;4.33;;
48191;SDS011;33982;47.430;18.912;2022-09-09T07:31:59;5.00;;;4.00;;
48191;SDS011;33982;47.430;18.912;2022-09-09T07:34:28;5.68;;;3.92;;
48191;SDS011;33982;47.430;18.912;2022-09-09T07:36:59;5.55;;;3.92;;
48191;SDS011;33982;47.430;18.912;2022-09-09T07:39:28;5.53;;;3.70;;
48191;SDS011;33982;47.430;18.912;2022-09-09T07:42:03;5.70;;;3.72;;
48191;SDS011;33982;47.430;18.912;2022-09-09T07:44:34;5.62;;;3.30;;
48191;SDS011;33982;47.430;18.912;2022-09-09T07:47:03;5.83;;;3.50;;
48191;SDS011;33982;47.430;18.912;2022-09-09T07:49:30;6.65;;;3.35;;
48191;SDS011;33982;47.430;18.912;2022-09-09T07:52:00;4.87;;;3.17;;
48191;SDS011;33982;47.430;18.912;2022-09-09T07:54:30;4.82;;;3.00;;
48191;SDS011;33982;47.430;18.912;2022-09-09T07:57:00;4.70;;;3.10;;
48191;SDS011;33982;47.430;18.912;2022-09-09T07:59:28;5.10;;;3.00;;
48191;SDS011;33982;47.430;18.912;2022-09-09T08:02:02;4.53;;;2.97;;
48191;SDS011;33982;47.430;18.912;2022-09-09T08:04:33;4.57;;;2.80;;
48191;SDS011;33982;47.430;18.912;2022-09-09T08:07:03;4.33;;;2.67;;
48191;SDS011;33982;47.430;18.912;2022-09-09T08:09:32;5.80;;;2.90;;
48191;SDS011;33982;47.430;18.912;2022-09-09T08:12:02;4.70;;;2.72;;
48191;SDS011;33982;47.430;18.912;2022-09-09T08:14:30;4.25;;;2.58;;
48191;SDS011;33982;47.430;18.912;2022-09-09T08:16:58;5.05;;;2.55;;
48191;SDS011;33982;47.430;18.912;2022-09-09T08:19:27;5.90;;;2.90;;
48191;SDS011;33982;47.430;18.912;2022-09-09T08:22:03;4.12;;;2.55;;
48191;SDS011;33982;47.430;18.912;2022-09-09T08:24:32;3.78;;;2.53;;
48191;SDS011;33982;47.430;18.912;2022-09-09T08:27:01;6.25;;;2.60;;
48191;SDS011;33982;47.430;18.912;2022-09-09T08:29:33;4.20;;;2.50;;
48191;SDS011;33982;47.430;18.912;2022-09-09T08:32:02;5.00;;;2.27;;
48191;SDS011;33982;47.430;18.912;2022-09-09T08:34:31;3.30;;;2.17;;
48191;SDS011;33982;47.430;18.912;2022-09-09T08:37:00;3.92;;;2.40;;
48191;SDS011;33982;47.430;18.912;2022-09-09T08:39:28;5.45;;;2.35;;
48191;SDS011;33982;47.430;18.912;2022-09-09T08:50:26;3.70;;;2.00;;
48191;SDS011;33982;47.430;18.912;2022-09-09T08:53:04;3.03;;;1.77;;
48191;SDS011;33982;47.430;18.912;2022-09-09T08:58:22;3.60;;;1.80;;
48191;SDS011;33982;47.430;18.912;2022-09-09T09:06:18;4.83;;;1.83;;
48191;SDS011;33982;47.430;18.912;2022-09-09T09:11:39;2.83;;;1.80;;
48191;SDS011;33982;47.430;18.912;2022-09-09T09:14:23;2.70;;;1.73;;
48191;SDS011;33982;47.430;18.912;2022-09-09T09:16:59;5.17;;;1.70;;
48191;SDS011;33982;47.430;18.912;2022-09-09T09:19:28;2.05;;;1.60;;
48191;SDS011;33982;47.430;18.912;2022-09-09T09:24:56;2.62;;;1.62;;
48191;SDS011;33982;47.430;18.912;2022-09-09T09:30:02;3.45;;;1.80;;
48191;SDS011;33982;47.430;18.912;2022-09-09T09:33:02;2.17;;;1.50;;
48191;SDS011;33982;47.430;18.912;2022-09-09T09:35:33;2.78;;;1.50;;
48191;SDS011;33982;47.430;18.912;2022-09-09T09:38:23;3.90;;;1.70;;
48191;SDS011;33982;47.430;18.912;2022-09-09T09:41:12;1.67;;;1.20;;
48191;SDS011;33982;47.430;18.912;2022-09-09T09:43:40;2.42;;;1.30;;
48191;SDS011;33982;47.430;18.912;2022-09-09T09:46:20;2.08;;;1.33;;
48191;SDS011;33982;47.430;18.912;2022-09-09T09:48:59;3.90;;;1.40;;
48191;SDS011;33982;47.430;18.912;2022-09-09T09:51:32;2.75;;;1.35;;
48191;SDS011;33982;47.430;18.912;2022-09-09T09:56:44;2.97;;;1.20;;
48191;SDS011;33982;47.430;18.912;2022-09-09T09:59:23;1.62;;;1.20;;
48191;SDS011;33982;47.430;18.912;2022-09-09T10:02:22;1.93;;;1.30;;
48191;SDS011;33982;47.430;18.912;2022-09-09T10:05:06;4.15;;;1.50;;
48191;SDS011;33982;47.430;18.912;2022-09-09T10:07:41;2.70;;;1.80;;
48191;SDS011;33982;47.430;18.912;2022-09-09T10:10:13;2.10;;;1.40;;
48191;SDS011;33982;47.430;18.912;2022-09-09T10:13:01;3.97;;;1.30;;
48191;SDS011;33982;47.430;18.912;2022-09-09T10:18:33;2.00;;;1.20;;
48191;SDS011;33982;47.430;18.912;2022-09-09T10:23:51;2.10;;;1.12;;
48191;SDS011;33982;47.430;18.912;2022-09-09T10:32:11;1.52;;;1.12;;
48191;SDS011;33982;47.430;18.912;2022-09-09T10:35:12;1.20;;;1.00;;
48191;SDS011;33982;47.430;18.912;2022-09-09T10:37:49;2.00;;;1.10;;
48191;SDS011;33982;47.430;18.912;2022-09-09T10:46:16;1.30;;;1.03;;
48191;SDS011;33982;47.430;18.912;2022-09-09T10:54:58;1.80;;;0.90;;
48191;SDS011;33982;47.430;18.912;2022-09-09T10:57:41;1.92;;;1.00;;
48191;SDS011;33982;47.430;18.912;2022-09-09T11:00:18;1.77;;;1.00;;
48191;SDS011;33982;47.430;18.912;2022-09-09T11:02:57;1.43;;;0.90;;
48191;SDS011;33982;47.430;18.912;2022-09-09T11:05:42;1.02;;;0.90;;
48191;SDS011;33982;47.430;18.912;2022-09-09T11:08:14;1.43;;;1.03;;
48191;SDS011;33982;47.430;18.912;2022-09-09T11:10:54;2.85;;;1.00;;
48191;SDS011;33982;47.430;18.912;2022-09-09T11:19:15;1.80;;;1.00;;
48191;SDS011;33982;47.430;18.912;2022-09-09T11:21:49;1.83;;;1.00;;
48191;SDS011;33982;47.430;18.912;2022-09-09T11:26:58;2.92;;;1.00;;
48191;SDS011;33982;47.430;18.912;2022-09-09T11:32:10;1.50;;;1.10;;
48191;SDS011;33982;47.430;18.912;2022-09-09T11:37:38;3.30;;;1.15;;
48191;SDS011;33982;47.430;18.912;2022-09-09T11:40:20;2.47;;;0.90;;
48191;SDS011;33982;47.430;18.912;2022-09-09T11:42:49;1.60;;;1.00;;
48191;SDS011;33982;47.430;18.912;2022-09-09T11:45:52;1.23;;;0.90;;
48191;SDS011;33982;47.430;18.912;2022-09-09T11:51:06;1.62;;;0.98;;
48191;SDS011;33982;47.430;18.912;2022-09-09T11:53:56;4.05;;;1.10;;
48191;SDS011;33982;47.430;18.912;2022-09-09T11:56:29;2.25;;;1.08;;
48191;SDS011;33982;47.430;18.912;2022-09-09T12:04:39;2.17;;;1.20;;
48191;SDS011;33982;47.430;18.912;2022-09-09T12:14:56;1.95;;;1.10;;
48191;SDS011;33982;47.430;18.912;2022-09-09T12:17:37;2.37;;;1.00;;
48191;SDS011;33982;47.430;18.912;2022-09-09T12:20:17;2.00;;;1.10;;
48191;SDS011;33982;47.430;18.912;2022-09-09T12:28:22;1.73;;;1.10;;
48191;SDS011;33982;47.430;18.912;2022-09-09T12:33:33;1.73;;;1.00;;
48191;SDS011;33982;47.430;18.912;2022-09-09T12:36:07;2.22;;;1.30;;
48191;SDS011;33982;47.430;18.912;2022-09-09T12:38:40;1.55;;;1.02;;
48191;SDS011;33982;47.430;18.912;2022-09-09T12:41:21;1.48;;;1.08;;
48191;SDS011;33982;47.430;18.912;2022-09-09T12:43:50;1.98;;;1.23;;
48191;SDS011;33982;47.430;18.912;2022-09-09T12:46:35;2.75;;;1.20;;
48191;SDS011;33982;47.430;18.912;2022-09-09T12:49:05;1.73;;;1.10;;
48191;SDS011;33982;47.430;18.912;2022-09-09T12:51:33;2.50;;;1.10;;
48191;SDS011;33982;47.430;18.912;2022-09-09T12:54:01;2.70;;;1.10;;
48191;SDS011;33982;47.430;18.912;2022-09-09T12:56:31;1.67;;;1.00;;
48191;SDS011;33982;47.430;18.912;2022-09-09T12:58:59;2.20;;;1.10;;
48191;SDS011;33982;47.430;18.912;2022-09-09T13:01:29;1.95;;;1.12;;
48191;SDS011;33982;47.430;18.912;2022-09-09T13:03:58;1.50;;;1.00;;
48191;SDS011;33982;47.430;18.912;2022-09-09T13:06:27;1.70;;;1.00;;
48191;SDS011;33982;47.430;18.912;2022-09-09T13:08:57;2.90;;;1.10;;
48191;SDS011;33982;47.430;18.912;2022-09-09T13:13:56;1.95;;;1.10;;
48191;SDS011;33982;47.430;18.912;2022-09-09T13:16:34;4.65;;;1.10;;
48191;SDS011;33982;47.430;18.912;2022-09-09T13:19:09;3.42;;;1.10;;
48191;SDS011;33982;47.430;18.912;2022-09-09T13:21:42;1.87;;;1.02;;
48191;SDS011;33982;47.430;18.912;2022-09-09T13:24:30;2.33;;;1.10;;
48191;SDS011;33982;47.430;18.912;2022-09-09T13:27:00;5.70;;;1.40;;
48191;SDS011;33982;47.430;18.912;2022-09-09T13:29:32;1.77;;;1.00;;
48191;SDS011;33982;47.430;18.912;2022-09-09T13:32:06;3.00;;;1.10;;
48191;SDS011;33982;47.430;18.912;2022-09-09T13:34:57;2.92;;;1.17;;
48191;SDS011;33982;47.430;18.912;2022-09-09T13:37:34;1.50;;;1.02;;
48191;SDS011;33982;47.430;18.912;2022-09-09T13:40:15;1.77;;;1.20;;
48191;SDS011;33982;47.430;18.912;2022-09-09T13:42:46;4.07;;;1.10;;
48191;SDS011;33982;47.430;18.912;2022-09-09T13:45:16;1.87;;;1.00;;
48191;SDS011;33982;47.430;18.912;2022-09-09T13:47:47;1.80;;;0.98;;
48191;SDS011;33982;47.430;18.912;2022-09-09T13:50:25;1.67;;;0.98;;
48191;SDS011;33982;47.430;18.912;2022-09-09T13:52:58;2.67;;;1.02;;
48191;SDS011;33982;47.430;18.912;2022-09-09T13:55:28;1.73;;;0.93;;
48191;SDS011;33982;47.430;18.912;2022-09-09T13:58:00;1.30;;;1.00;;
48191;SDS011;33982;47.430;18.912;2022-09-09T14:00:34;1.45;;;0.98;;
48191;SDS011;33982;47.430;18.912;2022-09-09T14:03:02;2.60;;;0.98;;
48191;SDS011;33982;47.430;18.912;2022-09-09T14:05:31;1.87;;;1.00;;
48191;SDS011;33982;47.430;18.912;2022-09-09T14:08:00;1.95;;;1.15;;
48191;SDS011;33982;47.430;18.912;2022-09-09T14:10:28;2.47;;;1.10;;
48191;SDS011;33982;47.430;18.912;2022-09-09T14:12:55;1.70;;;1.00;;
48191;SDS011;33982;47.430;18.912;2022-09-09T14:15:23;3.55;;;1.17;;
48191;SDS011;33982;47.430;18.912;2022-09-09T14:17:55;1.67;;;1.00;;
48191;SDS011;33982;47.430;18.912;2022-09-09T14:20:27;1.70;;;1.10;;
48191;SDS011;33982;47.430;18.912;2022-09-09T14:22:56;2.83;;;1.00;;
48191;SDS011;33982;47.430;18.912;2022-09-09T14:25:29;2.37;;;1.10;;
48191;SDS011;33982;47.430;18.912;2022-09-09T14:27:57;2.30;;;0.93;;
48191;SDS011;33982;47.430;18.912;2022-09-09T14:30:25;1.50;;;1.00;;
48191;SDS011;33982;47.430;18.912;2022-09-09T14:32:52;2.42;;;1.05;;
48191;SDS011;33982;47.430;18.912;2022-09-09T14:35:20;2.70;;;1.10;;
48191;SDS011;33982;47.430;18.912;2022-09-09T14:37:49;2.80;;;1.05;;
48191;SDS011;33982;47.430;18.912;2022-09-09T14:40:17;2.05;;;1.00;;
48191;SDS011;33982;47.430;18.912;2022-09-09T14:42:45;1.40;;;1.00;;
48191;SDS011;33982;47.430;18.912;2022-09-09T14:45:13;2.37;;;1.08;;
48191;SDS011;33982;47.430;18.912;2022-09-09T14:47:40;2.40;;;0.90;;
48191;SDS011;33982;47.430;18.912;2022-09-09T14:50:09;1.35;;;0.90;;
48191;SDS011;33982;47.430;18.912;2022-09-09T14:52:36;2.22;;;1.20;;
48191;SDS011;33982;47.430;18.912;2022-09-09T14:55:04;1.80;;;1.10;;
48191;SDS011;33982;47.430;18.912;2022-09-09T14:57:40;3.33;;;1.10;;
48191;SDS011;33982;47.430;18.912;2022-09-09T15:00:12;2.70;;;1.00;;
48191;SDS011;33982;47.430;18.912;2022-09-09T15:02:44;1.85;;;1.05;;
48191;SDS011;33982;47.430;18.912;2022-09-09T15:05:13;1.92;;;1.00;;
48191;SDS011;33982;47.430;18.912;2022-09-09T15:07:46;3.70;;;1.20;;
48191;SDS011;33982;47.430;18.912;2022-09-09T15:10:18;7.28;;;1.37;;
48191;SDS011;33982;47.430;18.912;2022-09-09T15:12:49;2.78;;;1.17;;
48191;SDS011;33982;47.430;18.912;2022-09-09T15:15:16;2.70;;;1.15;;
48191;SDS011;33982;47.430;18.912;2022-09-09T15:17:44;95.87;;;40.60;;
48191;SDS011;33982;47.430;18.912;2022-09-09T15:20:12;88.17;;;36.13;;
48191;SDS011;33982;47.430;18.912;2022-09-09T15:22:40;55.20;;;30.05;;
48191;SDS011;33982;47.430;18.912;2022-09-09T15:25:08;3.87;;;1.98;;
48191;SDS011;33982;47.430;18.912;2022-09-09T15:27:36;4.93;;;2.05;;
48191;SDS011;33982;47.430;18.912;2022-09-09T15:30:07;5.82;;;1.70;;
48191;SDS011;33982;47.430;18.912;2022-09-09T15:32:40;2.75;;;1.30;;
48191;SDS011;33982;47.430;18.912;2022-09-09T15:35:12;3.80;;;1.30;;
48191;SDS011;33982;47.430;18.912;2022-09-09T15:37:45;5.37;;;2.03;;
48191;SDS011;33982;47.430;18.912;2022-09-09T15:40:12;5.95;;;2.37;;
48191;SDS011;33982;47.430;18.912;2022-09-09T15:42:40;4.95;;;2.08;;
48191;SDS011;33982;47.430;18.912;2022-09-09T15:45:12;5.62;;;1.33;;
48191;SDS011;33982;47.430;18.912;2022-09-09T15:47:47;2.78;;;1.23;;
48191;SDS011;33982;47.430;18.912;2022-09-09T15:50:17;4.78;;;1.92;;
48191;SDS011;33982;47.430;18.912;2022-09-09T15:52:45;6.03;;;2.15;;
48191;SDS011;33982;47.430;18.912;2022-09-09T15:55:13;3.15;;;1.30;;
48191;SDS011;33982;47.430;18.912;2022-09-09T15:57:46;3.20;;;1.37;;
48191;SDS011;33982;47.430;18.912;2022-09-09T16:00:16;4.67;;;1.97;;
48191;SDS011;33982;47.430;18.912;2022-09-09T16:02:47;3.67;;;1.50;;
48191;SDS011;33982;47.430;18.912;2022-09-09T16:05:15;2.10;;;1.20;;
48191;SDS011;33982;47.430;18.912;2022-09-09T16:07:43;2.08;;;1.30;;
48191;SDS011;33982;47.430;18.912;2022-09-09T16:10:12;3.22;;;1.30;;
48191;SDS011;33982;47.430;18.912;2022-09-09T16:12:43;3.33;;;1.42;;
48191;SDS011;33982;47.430;18.912;2022-09-09T16:15:19;4.67;;;2.10;;
48191;SDS011;33982;47.430;18.912;2022-09-09T16:18:02;4.90;;;2.10;;
48191;SDS011;33982;47.430;18.912;2022-09-09T16:20:30;3.85;;;1.70;;
48191;SDS011;33982;47.430;18.912;2022-09-09T16:22:58;2.60;;;1.45;;
48191;SDS011;33982;47.430;18.912;2022-09-09T16:25:25;3.92;;;1.45;;
48191;SDS011;33982;47.430;18.912;2022-09-09T16:27:53;3.00;;;1.40;;
48191;SDS011;33982;47.430;18.912;2022-09-09T16:30:21;3.85;;;1.60;;
48191;SDS011;33982;47.430;18.912;2022-09-09T16:32:48;2.70;;;1.40;;
48191;SDS011;33982;47.430;18.912;2022-09-09T16:35:17;3.50;;;1.58;;
48191;SDS011;33982;47.430;18.912;2022-09-09T16:37:46;5.80;;;2.80;;
48191;SDS011;33982;47.430;18.912;2022-09-09T16:40:14;5.25;;;2.60;;
48191;SDS011;33982;47.430;18.912;2022-09-09T16:42:42;4.45;;;1.80;;
48191;SDS011;33982;47.430;18.912;2022-09-09T16:45:09;3.80;;;1.60;;
48191;SDS011;33982;47.430;18.912;2022-09-09T16:47:37;4.43;;;1.90;;
48191;SDS011;33982;47.430;18.912;2022-09-09T16:50:07;5.62;;;1.67;;
48191;SDS011;33982;47.430;18.912;2022-09-09T16:52:35;3.87;;;1.80;;
48191;SDS011;33982;47.430;18.912;2022-09-09T16:55:05;5.18;;;1.80;;
48191;SDS011;33982;47.430;18.912;2022-09-09T16:57:34;6.10;;;2.30;;
48191;SDS011;33982;47.430;18.912;2022-09-09T17:00:02;9.52;;;2.80;;
48191;SDS011;33982;47.430;18.912;2022-09-09T17:02:33;8.37;;;3.77;;
48191;SDS011;33982;47.430;18.912;2022-09-09T17:05:01;6.70;;;3.10;;
48191;SDS011;33982;47.430;18.912;2022-09-09T17:07:28;9.23;;;3.50;;
48191;SDS011;33982;47.430;18.912;2022-09-09T17:09:59;9.20;;;2.72;;
48191;SDS011;33982;47.430;18.912;2022-09-09T17:12:27;5.20;;;1.90;;
48191;SDS011;33982;47.430;18.912;2022-09-09T17:14:55;2.97;;;1.70;;
48191;SDS011;33982;47.430;18.912;2022-09-09T17:17:24;5.60;;;2.00;;
48191;SDS011;33982;47.430;18.912;2022-09-09T17:19:58;5.43;;;2.20;;
48191;SDS011;33982;47.430;18.912;2022-09-09T17:22:27;6.10;;;2.50;;
48191;SDS011;33982;47.430;18.912;2022-09-09T17:24:59;5.87;;;2.35;;
48191;SDS011;33982;47.430;18.912;2022-09-09T17:27:29;5.70;;;2.20;;
48191;SDS011;33982;47.430;18.912;2022-09-09T17:30:00;4.60;;;1.90;;